createdAt,value
2023-05-17T00:00:12.527Z,97636.75
2023-05-17T00:02:40.929Z,97645.72
2023-05-17T00:05:12.700Z,97642.25
2023-05-17T00:07:41.119Z,97645.88
2023-05-17T00:10:10.348Z,97644.56
2023-05-17T00:12:38.703Z,97648.06
2023-05-17T00:15:10.005Z,97654.34
2023-05-17T00:17:39.824Z,97652.88
2023-05-17T00:20:09.630Z,97649.34
2023-05-17T00:22:38.639Z,97656.69
2023-05-17T00:25:08.001Z,97648.03
2023-05-17T00:27:36.473Z,97658.00
2023-05-17T00:30:05.995Z,97658.16
2023-05-17T00:32:34.350Z,97664.50
2023-05-17T00:35:04.227Z,97656.50
2023-05-17T00:37:32.611Z,97662.00
2023-05-17T00:40:01.004Z,97667.47
2023-05-17T00:42:29.305Z,97665.13
2023-05-17T00:44:59.795Z,97664.97
2023-05-17T00:47:28.280Z,97662.16
2023-05-17T00:49:56.994Z,97662.31
2023-05-17T00:52:26.830Z,97671.59
2023-05-17T00:54:55.169Z,97668.94
2023-05-17T00:57:23.731Z,97670.09
2023-05-17T00:59:55.461Z,97675.72
2023-05-17T01:02:23.912Z,97676.91
2023-05-17T01:04:52.365Z,97666.41
2023-05-17T01:07:20.750Z,97675.38
2023-05-17T01:09:51.001Z,97671.22
2023-05-17T01:12:34.298Z,97678.66
2023-05-17T01:15:15.688Z,97675.53
2023-05-17T01:17:53.666Z,97672.19
2023-05-17T01:20:29.013Z,97674.16
2023-05-17T01:23:12.706Z,97672.66
2023-05-17T01:26:01.339Z,97669.63
2023-05-17T01:28:32.964Z,97679.28
2023-05-17T01:31:04.297Z,97674.13
2023-05-17T01:33:33.627Z,97678.59
2023-05-17T01:36:02.020Z,97685.84
2023-05-17T01:38:30.391Z,97688.38
2023-05-17T01:41:07.242Z,97682.22
2023-05-17T01:43:52.307Z,97689.50
2023-05-17T01:46:29.604Z,97680.47
2023-05-17T01:49:12.482Z,97687.97
2023-05-17T01:51:49.253Z,97690.78
2023-05-17T01:54:24.655Z,97688.91
2023-05-17T01:56:59.221Z,97696.25
2023-05-17T01:59:30.726Z,97685.91
2023-05-17T02:02:06.118Z,97682.72
2023-05-17T02:04:38.107Z,97684.72
2023-05-17T02:07:06.696Z,97690.72
2023-05-17T02:09:35.071Z,97687.84
2023-05-17T02:12:03.396Z,97703.63
2023-05-17T02:17:10.462Z,97704.09
2023-05-17T02:19:38.774Z,97697.97
2023-05-17T02:22:07.076Z,97711.09
2023-05-17T02:24:35.389Z,97698.78
2023-05-17T02:27:04.524Z,97706.91
2023-05-17T02:29:32.826Z,97708.91
2023-05-17T02:32:01.138Z,97704.56
2023-05-17T02:34:30.864Z,97710.03
2023-05-17T02:36:59.234Z,97715.50
2023-05-17T02:39:27.539Z,97714.84
2023-05-17T02:41:55.857Z,97715.66
2023-05-17T02:44:24.235Z,97709.53
2023-05-17T02:46:52.554Z,97712.19
2023-05-17T02:49:20.922Z,97715.81
2023-05-17T02:51:50.596Z,97725.78
2023-05-17T02:54:18.909Z,97721.22
2023-05-17T02:56:47.198Z,97719.44
2023-05-17T02:59:16.128Z,97720.53
2023-05-17T03:01:44.540Z,97721.69
2023-05-17T03:04:12.994Z,97727.31
2023-05-17T03:06:41.353Z,97737.94
2023-05-17T03:09:13.924Z,97734.75
2023-05-17T03:11:42.194Z,97738.41
2023-05-17T03:14:10.622Z,97744.03
2023-05-17T03:16:38.960Z,97750.34
2023-05-17T03:19:10.346Z,97749.47
2023-05-17T03:21:38.741Z,97752.28
2023-05-17T03:24:08.421Z,97754.09
2023-05-17T03:26:38.153Z,97750.63
2023-05-17T03:29:06.455Z,97760.41
2023-05-17T03:31:34.828Z,97771.19
2023-05-17T03:34:03.226Z,97759.88
2023-05-17T03:36:31.793Z,97774.31
2023-05-17T03:39:00.230Z,97774.31
2023-05-17T03:41:28.588Z,97777.66
2023-05-17T03:43:58.273Z,97790.09
2023-05-17T03:46:26.807Z,97787.44
2023-05-17T03:48:55.249Z,97795.56
2023-05-17T03:51:26.444Z,97803.13
2023-05-17T03:54:00.877Z,97804.25
2023-05-17T03:56:29.198Z,97812.09
2023-05-17T03:58:58.897Z,97810.28
2023-05-17T04:01:27.345Z,97816.69
2023-05-17T04:03:55.741Z,97808.72
2023-05-17T04:06:24.190Z,97822.84
2023-05-17T04:08:55.885Z,97821.19
2023-05-17T04:11:26.755Z,97827.63
2023-05-17T04:13:56.873Z,97833.78
2023-05-17T04:16:26.656Z,97832.94
2023-05-17T04:18:55.242Z,97825.97
2023-05-17T04:21:23.697Z,97840.22
2023-05-17T04:23:52.052Z,97847.19
2023-05-17T04:26:20.783Z,97843.34
2023-05-17T04:28:52.410Z,97845.13
2023-05-17T04:31:28.338Z,97846.97
2023-05-17T04:33:57.015Z,97856.59
2023-05-17T04:36:25.551Z,97862.06
2023-05-17T04:38:56.686Z,97866.53
2023-05-17T04:41:30.070Z,97862.06
2023-05-17T04:43:58.662Z,97863.72
2023-05-17T04:46:28.326Z,97869.03
2023-05-17T04:48:57.400Z,97876.84
2023-05-17T04:51:27.043Z,97878.69
2023-05-17T04:53:55.385Z,97870.72
2023-05-17T04:56:23.763Z,97874.91
2023-05-17T04:58:52.964Z,97874.34
2023-05-17T05:01:22.180Z,97886.50
2023-05-17T05:03:51.884Z,97873.13
2023-05-17T05:06:22.068Z,97887.25
2023-05-17T05:08:50.406Z,97890.72
2023-05-17T05:11:21.515Z,97891.28
2023-05-17T05:13:49.835Z,97890.97
2023-05-17T05:16:18.228Z,97895.75
2023-05-17T05:18:46.688Z,97900.22
2023-05-17T05:21:16.498Z,97906.34
2023-05-17T05:23:44.901Z,97898.38
2023-05-17T05:26:13.341Z,97914.31
2023-05-17T05:28:41.736Z,97907.06
2023-05-17T05:31:10.050Z,97912.81
2023-05-17T05:33:38.512Z,97916.16
2023-05-17T05:36:07.987Z,97915.88
2023-05-17T05:38:38.138Z,97912.50
2023-05-17T05:41:06.531Z,97920.63
2023-05-17T05:43:36.223Z,97928.84
2023-05-17T05:46:04.759Z,97926.34
2023-05-17T05:48:39.482Z,97934.84
2023-05-17T05:51:07.998Z,97932.16
2023-05-17T05:53:37.711Z,97939.00
2023-05-17T05:56:06.862Z,97935.53
2023-05-17T05:58:38.161Z,97945.16
2023-05-17T06:01:06.931Z,97946.53
2023-05-17T06:03:35.277Z,97946.38
2023-05-17T06:06:03.692Z,97946.09
2023-05-17T06:08:32.125Z,97951.09
2023-05-17T06:11:01.802Z,97947.34
2023-05-17T06:13:30.226Z,97953.16
2023-05-17T06:15:59.603Z,97964.50
2023-05-17T06:18:28.166Z,97966.00
2023-05-17T06:20:56.574Z,97963.06
2023-05-17T06:23:25.693Z,97967.13
2023-05-17T06:25:54.135Z,97966.97
2023-05-17T06:28:23.999Z,97975.59
2023-05-17T06:30:52.374Z,97969.47
2023-05-17T06:33:20.726Z,97976.00
2023-05-17T06:38:22.947Z,97978.59
2023-05-17T06:40:54.199Z,97985.59
2023-05-17T06:43:24.440Z,97983.47
2023-05-17T06:45:53.171Z,97977.69
2023-05-17T06:48:21.720Z,97991.00
2023-05-17T06:50:50.249Z,97984.25
2023-05-17T06:53:18.802Z,97986.16
2023-05-17T06:55:47.262Z,97991.56
2023-05-17T06:58:15.812Z,97993.75
2023-05-17T07:00:45.722Z,97995.19
2023-05-17T07:03:16.550Z,97999.88
2023-05-17T07:05:44.960Z,97999.28
2023-05-17T07:08:15.023Z,98007.09
2023-05-17T07:10:43.336Z,98004.53
2023-05-17T07:13:11.669Z,98001.94
2023-05-17T07:15:40.052Z,98000.50
2023-05-17T07:18:09.909Z,97992.06
2023-05-17T07:20:38.330Z,97998.28
2023-05-17T07:23:09.698Z,97995.53
2023-05-17T07:25:40.664Z,97993.59
2023-05-17T07:28:09.026Z,97993.06
2023-05-17T07:30:37.379Z,97990.72
2023-05-17T07:33:05.914Z,97986.66
2023-05-17T07:35:35.846Z,97990.59
2023-05-17T07:38:04.213Z,97984.31
2023-05-17T07:40:32.626Z,97989.22
2023-05-17T07:43:01.152Z,97986.25
2023-05-17T07:45:29.997Z,97984.50
2023-05-17T07:47:58.612Z,97975.22
2023-05-17T07:50:28.062Z,97988.25
2023-05-17T07:52:58.046Z,97976.75
2023-05-17T07:55:26.607Z,97986.44
2023-05-17T07:57:55.076Z,97985.31
2023-05-17T08:00:24.735Z,97987.69
2023-05-17T08:02:53.283Z,97990.38
2023-05-17T08:05:21.870Z,97984.88
2023-05-17T08:07:50.316Z,97985.69
2023-05-17T08:10:20.421Z,97979.53
2023-05-17T08:12:48.807Z,97989.38
2023-05-17T08:15:17.156Z,97989.50
2023-05-17T08:17:45.792Z,97994.00
2023-05-17T08:20:14.641Z,98000.38
2023-05-17T08:22:43.086Z,97997.38
2023-05-17T08:25:12.125Z,98006.38
2023-05-17T08:27:44.584Z,98011.38
2023-05-17T08:30:17.969Z,98009.84
2023-05-17T08:32:50.097Z,98013.53
2023-05-17T08:35:18.801Z,98019.91
2023-05-17T08:37:47.171Z,98023.25
2023-05-17T08:40:20.205Z,98029.25
2023-05-17T08:42:50.983Z,98026.06
2023-05-17T08:45:20.050Z,98031.56
2023-05-17T08:47:49.370Z,98026.91
2023-05-17T08:50:17.835Z,98042.44
2023-05-17T08:52:47.623Z,98034.06
2023-05-17T08:55:16.408Z,98041.06
2023-05-17T08:57:45.990Z,98039.06
2023-05-17T09:00:21.096Z,98036.91
2023-05-17T09:02:52.510Z,98048.06
2023-05-17T09:05:21.322Z,98037.72
2023-05-17T09:07:50.561Z,98037.38
2023-05-17T09:10:19.117Z,98041.53
2023-05-17T09:12:47.743Z,98034.34
2023-05-17T09:15:22.997Z,98050.88
2023-05-17T09:17:53.867Z,98047.34
2023-05-17T09:20:25.982Z,98047.16
2023-05-17T09:22:54.454Z,98053.53
2023-05-17T09:25:26.303Z,98061.38
2023-05-17T09:27:55.391Z,98061.34
2023-05-17T09:30:31.508Z,98052.63
2023-05-17T09:33:07.123Z,98061.13
2023-05-17T09:35:37.179Z,98054.94
2023-05-17T09:38:09.052Z,98056.75
2023-05-17T09:40:40.909Z,98055.22
2023-05-17T09:43:10.326Z,98054.19
2023-05-17T09:45:41.235Z,98044.25
2023-05-17T09:48:14.944Z,98041.53
2023-05-17T09:50:47.451Z,98044.66
2023-05-17T09:53:38.441Z,98044.63
2023-05-17T09:56:08.281Z,98042.56
2023-05-17T09:58:39.354Z,98044.25
2023-05-17T10:01:11.299Z,98035.50
2023-05-17T10:03:40.147Z,98047.03
2023-05-17T10:06:13.384Z,98039.81
2023-05-17T10:08:54.092Z,98038.75
2023-05-17T10:11:28.148Z,98037.38
2023-05-17T10:14:08.479Z,98029.66
2023-05-17T10:16:39.861Z,98032.63
2023-05-17T10:21:37.747Z,98031.13
2023-05-17T10:24:08.063Z,98022.84
2023-05-17T10:26:38.593Z,98026.81
2023-05-17T10:29:07.498Z,98028.28
2023-05-17T10:31:37.551Z,98023.78
2023-05-17T10:34:07.532Z,98022.13
2023-05-17T10:36:36.095Z,98026.63
2023-05-17T10:39:04.865Z,98019.78
2023-05-17T10:41:36.434Z,98015.19
2023-05-17T10:44:08.012Z,98018.47
2023-05-17T10:46:38.226Z,98009.06
2023-05-17T10:49:07.176Z,98017.69
2023-05-17T10:51:38.277Z,98007.63
2023-05-17T10:54:11.684Z,98017.41
2023-05-17T10:56:49.518Z,98009.63
2023-05-17T10:59:23.552Z,98000.66
2023-05-17T11:02:11.751Z,98003.53
2023-05-17T11:04:42.229Z,97996.97
2023-05-17T11:07:27.292Z,98004.47
2023-05-17T11:09:57.658Z,98004.28
2023-05-17T11:12:38.579Z,97997.22
2023-05-17T11:15:10.783Z,97988.81
2023-05-17T11:17:56.182Z,97994.75
2023-05-17T11:20:36.932Z,97996.63
2023-05-17T11:23:18.795Z,97998.63
2023-05-17T11:25:49.300Z,97999.09
2023-05-17T11:28:23.014Z,97996.06
2023-05-17T11:30:53.705Z,98001.78
2023-05-17T11:33:40.367Z,97997.78
2023-05-17T11:36:19.344Z,97999.19
2023-05-17T11:38:55.174Z,97993.34
2023-05-17T11:41:30.744Z,98000.97
2023-05-17T11:43:59.515Z,97988.13
2023-05-17T11:46:27.880Z,97991.88
2023-05-17T11:48:58.560Z,97997.97
2023-05-17T11:51:27.655Z,98004.63
2023-05-17T11:53:56.642Z,98003.63
2023-05-17T11:56:35.684Z,98005.75
2023-05-17T11:59:11.321Z,97995.84
2023-05-17T12:01:47.542Z,97999.00
2023-05-17T12:04:26.335Z,98008.69
2023-05-17T12:06:56.044Z,98008.06
2023-05-17T12:09:26.149Z,98006.91
2023-05-17T12:11:55.627Z,98007.41
2023-05-17T12:14:24.099Z,98016.50
2023-05-17T12:16:56.295Z,98016.69
2023-05-17T12:19:29.829Z,98020.09
2023-05-17T12:22:09.458Z,98023.97
2023-05-17T12:24:42.632Z,98022.00
2023-05-17T12:27:11.598Z,98018.34
2023-05-17T12:29:40.377Z,98012.69
2023-05-17T12:32:11.633Z,98019.88
2023-05-17T12:34:41.933Z,98011.03
2023-05-17T12:37:10.984Z,98031.47
2023-05-17T12:39:39.861Z,98022.19
2023-05-17T12:42:09.616Z,98015.19
2023-05-17T12:44:38.109Z,98027.56
2023-05-17T12:47:06.911Z,98027.13
2023-05-17T12:49:41.267Z,98022.56
2023-05-17T12:52:11.645Z,98019.53
2023-05-17T12:54:41.925Z,98024.88
2023-05-17T12:57:16.184Z,98025.34
2023-05-17T12:59:49.307Z,98020.28
2023-05-17T13:02:18.629Z,98011.13
2023-05-17T13:04:48.681Z,98022.25
2023-05-17T13:07:24.691Z,98015.97
2023-05-17T13:09:53.231Z,98014.09
2023-05-17T13:12:23.946Z,98005.16
2023-05-17T13:14:54.701Z,98011.47
2023-05-17T13:17:28.537Z,98014.91
2023-05-17T13:19:58.644Z,98010.72
2023-05-17T13:22:27.252Z,98012.47
2023-05-17T13:24:56.437Z,98004.13
2023-05-17T13:27:24.823Z,97999.25
2023-05-17T13:29:57.792Z,98001.81
2023-05-17T13:32:26.315Z,98002.22
2023-05-17T13:34:55.008Z,98004.09
2023-05-17T13:37:24.885Z,97997.44
2023-05-17T13:39:54.808Z,98003.19
2023-05-17T13:42:23.826Z,97996.81
2023-05-17T13:44:55.088Z,97999.25
2023-05-17T13:47:24.153Z,97999.19
2023-05-17T13:49:52.889Z,97989.66
2023-05-17T13:52:23.069Z,98009.69
2023-05-17T13:54:52.923Z,98011.91
2023-05-17T13:57:21.314Z,98010.25
2023-05-17T13:59:49.922Z,98016.84
2023-05-17T14:02:18.382Z,98019.53
2023-05-17T14:04:46.821Z,98017.66
2023-05-17T14:07:15.121Z,98026.94
2023-05-17T14:09:43.739Z,98024.44
2023-05-17T14:12:13.704Z,98023.94
2023-05-17T14:14:42.050Z,98030.34
2023-05-17T14:17:10.383Z,98024.34
2023-05-17T14:19:38.904Z,98029.69
2023-05-17T14:22:08.833Z,98038.59
2023-05-17T14:24:37.185Z,98034.66
2023-05-17T14:27:06.231Z,98033.53
2023-05-17T14:29:35.952Z,98031.22
2023-05-17T14:32:04.608Z,98041.34
2023-05-17T14:34:35.193Z,98035.88
2023-05-17T14:37:03.464Z,98035.81
2023-05-17T14:39:31.853Z,98029.13
2023-05-17T14:42:00.241Z,98032.00
2023-05-17T14:44:28.549Z,98031.56
2023-05-17T14:46:58.307Z,98037.31
2023-05-17T14:49:26.656Z,98043.69
2023-05-17T14:51:54.930Z,98041.38
2023-05-17T14:54:29.735Z,98045.84
2023-05-17T14:56:58.569Z,98028.88
2023-05-17T14:59:27.179Z,98042.78
2023-05-17T15:01:56.892Z,98036.94
2023-05-17T15:04:32.973Z,98044.44
2023-05-17T15:07:01.351Z,98045.84
2023-05-17T15:09:30.853Z,98038.25
2023-05-17T15:11:59.267Z,98043.63
2023-05-17T15:14:27.706Z,98042.59
2023-05-17T15:16:57.539Z,98039.25
2023-05-17T15:19:26.542Z,98034.34
2023-05-17T15:21:55.110Z,98031.47
2023-05-17T15:24:23.529Z,98035.19
2023-05-17T15:26:51.986Z,98042.13
2023-05-17T15:29:20.406Z,98042.69
2023-05-17T15:31:48.772Z,98046.94
2023-05-17T15:34:18.636Z,98051.84
2023-05-17T15:36:48.297Z,98057.13
2023-05-17T15:39:16.763Z,98051.13
2023-05-17T15:41:45.598Z,98054.88
2023-05-17T15:44:14.033Z,98065.53
2023-05-17T15:46:42.436Z,98058.66
2023-05-17T15:49:10.988Z,98070.13
2023-05-17T15:51:40.895Z,98059.94
2023-05-17T15:54:09.366Z,98056.81
2023-05-17T15:56:38.711Z,98066.22
2023-05-17T15:59:07.790Z,98061.38
2023-05-17T16:01:36.368Z,98060.28
2023-05-17T16:04:04.813Z,98069.03
2023-05-17T16:06:36.087Z,98068.78
2023-05-17T16:09:06.128Z,98065.97
2023-05-17T16:11:34.608Z,98079.06
2023-05-17T16:14:03.099Z,98074.25
2023-05-17T16:16:31.475Z,98077.47
2023-05-17T16:19:01.112Z,98078.38
2023-05-17T16:21:29.527Z,98087.44
2023-05-17T16:23:57.918Z,98087.94
2023-05-17T16:26:30.318Z,98092.81
2023-05-17T16:28:58.781Z,98088.19
2023-05-17T16:31:27.321Z,98087.69
2023-05-17T16:33:55.859Z,98096.94
2023-05-17T16:36:25.246Z,98097.63
2023-05-17T16:38:53.728Z,98097.13
2023-05-17T16:41:22.496Z,98104.56
2023-05-17T16:43:52.241Z,98096.03
2023-05-17T16:46:24.633Z,98103.75
2023-05-17T16:48:55.507Z,98108.16
2023-05-17T16:51:24.345Z,98102.50
2023-05-17T16:53:52.729Z,98107.03
2023-05-17T16:56:22.123Z,98107.56
2023-05-17T16:58:52.307Z,98108.91
2023-05-17T17:01:21.303Z,98112.28
2023-05-17T17:03:49.655Z,98114.44
2023-05-17T17:06:18.071Z,98120.97
2023-05-17T17:08:46.602Z,98114.31
2023-05-17T17:11:15.091Z,98114.66
2023-05-17T17:13:43.551Z,98123.66
2023-05-17T17:16:13.380Z,98118.69
2023-05-17T17:18:41.803Z,98129.72
2023-05-17T17:21:10.382Z,98119.03
2023-05-17T17:23:39.816Z,98123.88
2023-05-17T17:26:11.323Z,98125.22
2023-05-17T17:28:39.946Z,98125.75
2023-05-17T17:31:08.718Z,98133.94
2023-05-17T17:33:38.811Z,98130.59
2023-05-17T17:36:09.269Z,98134.44
2023-05-17T17:38:37.795Z,98137.28
2023-05-17T17:41:06.369Z,98141.13
2023-05-17T17:43:34.838Z,98147.31
2023-05-17T17:46:03.390Z,98142.97
2023-05-17T17:48:31.887Z,98140.31
2023-05-17T17:51:01.811Z,98142.97
2023-05-17T17:53:30.260Z,98149.31
2023-05-17T17:55:58.659Z,98142.31
2023-05-17T17:58:26.986Z,98143.47
2023-05-17T18:00:55.534Z,98144.31
2023-05-17T18:03:23.994Z,98149.16
2023-05-17T18:05:52.427Z,98150.31
2023-05-17T18:08:22.198Z,98154.00
2023-05-17T18:10:50.633Z,98158.03
2023-05-17T18:13:19.001Z,98163.88
2023-05-17T18:15:47.448Z,98156.19
2023-05-17T18:18:16.107Z,98157.38
2023-05-17T18:20:44.569Z,98167.03
2023-05-17T18:23:13.033Z,98164.53
2023-05-17T18:25:42.827Z,98167.72
2023-05-17T18:28:11.180Z,98160.03
2023-05-17T18:30:40.081Z,98161.03
2023-05-17T18:33:08.677Z,98166.88
2023-05-17T18:35:37.281Z,98168.06
2023-05-17T18:38:05.778Z,98171.03
2023-05-17T18:40:34.271Z,98168.84
2023-05-17T18:43:04.102Z,98170.84
2023-05-17T18:45:41.521Z,98180.03
2023-05-17T18:48:09.972Z,98183.03
2023-05-17T18:50:38.447Z,98182.50
2023-05-17T18:53:06.851Z,98179.34
2023-05-17T18:55:35.289Z,98185.03
2023-05-17T18:58:05.055Z,98194.69
2023-05-17T19:00:33.546Z,98193.03
2023-05-17T19:03:02.079Z,98189.84
2023-05-17T19:05:30.582Z,98196.84
2023-05-17T19:07:58.973Z,98195.50
2023-05-17T19:10:27.467Z,98196.84
2023-05-17T19:12:55.850Z,98196.31
2023-05-17T19:15:25.833Z,98204.66
2023-05-17T19:17:54.287Z,98197.81
2023-05-17T19:20:24.458Z,98201.28
2023-05-17T19:22:52.856Z,98213.78
2023-05-17T19:25:21.371Z,98210.59
2023-05-17T19:27:49.734Z,98207.28
2023-05-17T19:30:20.891Z,98212.09
2023-05-17T19:32:51.199Z,98203.59
2023-05-17T19:35:19.754Z,98199.53
2023-05-17T19:37:48.123Z,98212.22
2023-05-17T19:40:18.804Z,98207.22
2023-05-17T19:42:47.173Z,98213.84
2023-05-17T19:45:15.798Z,98208.81
2023-05-17T19:47:44.516Z,98215.50
2023-05-17T19:50:17.484Z,98216.97
2023-05-17T19:52:46.116Z,98208.72
2023-05-17T19:55:15.944Z,98213.38
2023-05-17T19:57:44.297Z,98206.84
2023-05-17T20:00:23.362Z,98214.66
2023-05-17T20:02:52.098Z,98216.78
2023-05-17T20:05:22.106Z,98218.44
2023-05-17T20:07:50.824Z,98227.72
2023-05-17T20:10:19.243Z,98230.19
2023-05-17T20:12:48.143Z,98234.28
2023-05-17T20:15:22.276Z,98234.09
2023-05-17T20:17:50.729Z,98233.84
2023-05-17T20:20:19.225Z,98234.47
2023-05-17T20:22:49.585Z,98230.31
2023-05-17T20:25:20.699Z,98236.94
2023-05-17T20:27:49.173Z,98240.88
2023-05-17T20:30:17.503Z,98242.19
2023-05-17T20:32:45.877Z,98238.97
2023-05-17T20:35:19.810Z,98243.66
2023-05-17T20:37:49.555Z,98239.59
2023-05-17T20:40:18.067Z,98239.91
2023-05-17T20:42:47.341Z,98242.72
2023-05-17T20:45:23.746Z,98240.34
2023-05-17T20:47:52.613Z,98243.16
2023-05-17T20:50:21.669Z,98242.66
2023-05-17T20:52:51.764Z,98237.59
2023-05-17T20:55:20.167Z,98243.22
2023-05-17T20:57:48.702Z,98236.50
2023-05-17T21:00:18.088Z,98240.16
2023-05-17T21:02:46.547Z,98240.31
2023-05-17T21:05:18.010Z,98236.00
2023-05-17T21:07:46.750Z,98232.78
2023-05-17T21:10:17.839Z,98241.06
2023-05-17T21:12:46.218Z,98238.69
2023-05-17T21:18:06.803Z,98237.63
2023-05-17T21:20:35.506Z,98235.13
2023-05-17T21:23:03.954Z,98248.59
2023-05-17T21:25:34.074Z,98238.94
2023-05-17T21:28:02.478Z,98245.22
2023-05-17T21:30:31.084Z,98244.56
2023-05-17T21:32:59.700Z,98248.19
2023-05-17T21:35:28.206Z,98251.84
2023-05-17T21:37:56.647Z,98239.53
2023-05-17T21:40:24.990Z,98242.34
2023-05-17T21:42:54.809Z,98235.31
2023-05-17T21:45:23.416Z,98248.78
2023-05-17T21:47:51.904Z,98248.13
2023-05-17T21:50:20.511Z,98241.09
2023-05-17T21:52:48.935Z,98244.75
2023-05-17T21:55:17.428Z,98243.09
2023-05-17T21:57:46.076Z,98245.91
2023-05-17T22:00:16.694Z,98239.03
2023-05-17T22:02:46.038Z,98243.69
2023-05-17T22:05:14.774Z,98246.63
2023-05-17T22:07:43.999Z,98241.59
2023-05-17T22:10:13.374Z,98243.72
2023-05-17T22:12:41.916Z,98234.22
2023-05-17T22:15:11.477Z,98240.81
2023-05-17T22:17:50.996Z,98242.09
2023-05-17T22:20:26.896Z,98238.06
2023-05-17T22:22:55.294Z,98238.34
2023-05-17T22:25:23.894Z,98233.47
2023-05-17T22:27:52.202Z,98238.22
2023-05-17T22:30:25.850Z,98228.88
2023-05-17T22:32:57.286Z,98232.81
2023-05-17T22:35:26.059Z,98235.91
2023-05-17T22:37:54.792Z,98236.31
2023-05-17T22:40:25.837Z,98244.88
2023-05-17T22:42:54.324Z,98239.97
2023-05-17T22:45:22.705Z,98238.75
2023-05-17T22:47:51.069Z,98244.50
2023-05-17T22:50:24.501Z,98245.75
2023-05-17T22:52:53.250Z,98248.81
2023-05-17T22:55:25.119Z,98243.94
2023-05-17T22:57:54.148Z,98244.22
2023-05-17T23:00:22.642Z,98239.34
2023-05-17T23:02:51.005Z,98239.66
2023-05-17T23:05:22.228Z,98238.25
2023-05-17T23:07:50.651Z,98237.00
2023-05-17T23:10:19.655Z,98235.47
2023-05-17T23:12:49.252Z,98237.69
2023-05-17T23:15:18.557Z,98237.00
2023-05-17T23:17:48.153Z,98237.13
2023-05-17T23:20:16.531Z,98230.44
2023-05-17T23:22:47.669Z,98230.00
2023-05-17T23:25:18.387Z,98233.78
2023-05-17T23:27:48.706Z,98227.91
2023-05-17T23:30:17.081Z,98219.53
2023-05-17T23:32:47.211Z,98225.00
2023-05-17T23:35:15.700Z,98220.09
2023-05-17T23:37:45.542Z,98218.56
2023-05-17T23:40:15.723Z,98217.88
2023-05-17T23:42:44.208Z,98218.41
2023-05-17T23:45:12.746Z,98221.63
2023-05-17T23:47:44.438Z,98218.53
2023-05-17T23:50:12.933Z,98215.59
2023-05-17T23:52:43.560Z,98210.56
2023-05-17T23:55:13.346Z,98219.88
2023-05-17T23:57:42.487Z,98216.69
